Monday, March 30, 2015
12:58 UTC
  |  Log In   |  Register Free
Airport Search:

De Kalb County Airport
(KGWB)

De Kalb County Airport Diagram
No Airport Diagram Available

FAA data valid effective March 05, 2015 - April 30, 2015 (unless otherwise noted).

 
 
 
 
 
 
 
 
 
 
 
 
 
 

Current Aviation Weather for De Kalb County Airport (KGWB)

The most recent METAR observation for KGWB was updated at: 1409
METAR Summary (Translated METAR)
KGWB
251355Z AUTO 20008KT 1SM BR OVC005 06/05 A2984 RMK AO2
KANQ
251435Z AUTO 21005KT 1 3/4SM OVC003 04/04 A2982 RMK
(20 nm NW from KGWB)
KFWA
251354Z 23013KT 1 3/4SM -DZ BR OVC005 07/06 A2987 RMK AO2 DZB36 SLP119 P0000 T00670056
(20.6 nm SW from KGWB)
TAF Summary (Translated TAF)
KFWA
(20.6 nm SW from KGWB)
251313Z 2513/2612 21010KT 4SM BR BKN007 OVC012 FM251500 24014G20KT P6SM OVC012 FM252000 26013KT P6SM SCT015 FM260000 25005KT P6SM BKN080 FM260900 35009KT 4SM -RA BR OVC015
  Airport Weather Conditions for KGWB

 Current Weather at GWB
36° F
Fair
West winds at 6.9 mph
GWB NOAA Radar

Pressure: 29.97 in
Humidity: 75%
Wind: West at 6.9 MPH (6 KT)
Dew Point: 28.4°F
Visibility: 10.00 mi


Airport Weather Forecast for KGWB

Translated METAR and TAF for KGWB
Translated METAR for KGWB (1258 UTC 30 March 2015)
found at http://aviationweather.gov/adds/metars/
 
METAR text: KGWB 301235Z AUTO 27007KT 10SM CLR 03/M01 A2998 RMK AO2
Conditions at: KGWB (AUBURN DEKALB C , IN, US) observed 1235 UTC 30 March 2015
Temperature: 3.0°C (37°F)
Dewpoint: -1.0°C (30°F) [RH = 75%]
Pressure (altimeter): 29.98 inches Hg (1015.3 mb)
Winds: from the W (270 degrees) at 8 MPH (7 knots; 3.6 m/s)
Visibility: 10 or more miles (16+ km)
Ceiling: at least 12,000 feet AGL
Clouds: sky clear below 12,000 feet AGL
Weather: automated observation with no human augmentation;
there may or may not be significant weather present at this time
Translated TAF for KGWB

There is no translated TAF available for this airport

Find All Airport Services Find A Hotel Find A Rental Car Find A Golf Course Find A Restaurant $100 Hamburger



FBO's on the Field
FBO Company Facility Photos Services Transportation Aviation Fuel Prices: Prices include tax
Catering Weather Repair Courtesy Rental Type 100LL JetA JetA+ MOGAS 8087
 
Century Aviation

This FBO has not yet been rated
FS:Shell
Last Updated: Mar-26
Login to update fuel prices
SS:
Contact Century AviationMore FBO Information
 
Add another FBO Facility Photos Catering Weather Repair Courtesy Rental Type 100LL JetA JetA+ MOGAS 8087
Services Transportation Aviation Fuel Prices: Prices include tax


model-print
model-print
model-print
model-print